Main page
METAR-TAF:

METAR-TAF

Airports :

Rijeka Airport

Rijeka, Croatia

latitude: 45-13N, longitude: 014-35E, elevation: 85 m

Current weather observation

The report was made 35 minutes ago, at 21:00 UTC
Wind 5 kt from the East/Southeast, varying between East and South/Southeast
Temperature 13°C
Humidity 77%
Pressure 1016 hPa
Visibility 10 km or more
no clouds below 1500 m and no cumulonimbus

METAR: LDRI 232100Z 12005KT 080V160 CAVOK 13/09 Q1016

Time: 23:35 (21:35 UTC)

Forecast

The report was made 4 hours and 10 minutes ago, at 17:25 UTC
Forecast valid from 23 at 18 UTC to 24 at 18 UTC
Wind 2 kt from variable directions
Visibility 10 km or more
no clouds below 1500 m and no cumulonimbus
Temporary
from 24 at 11 UTC to 24 at 16 UTC
Wind 6 kt from the Northwest

TAF: LDRI 231725Z 2318/2418 VRB02KT CAVOK TX21/2413Z TN14/2321Z TEMPO 2411/2416 32006KT

Weather observations and forecasts of more than 4000 airports (METAR and TAF reports).

The available stations are represented by yellow and red dots on the map.

Hover mouse over dot to see the name of the station.

Then click to see weather observations and forecasts.

To change the map : click on the green buttons with a black cross to zoom in, on the green button with a dash to zoom out, or on the green arrows for adjacent maps.


METAR-TAF: